sensor_id;sensor_type;location;lat;lon;timestamp;P1;durP1;ratioP1;P2;durP2;ratioP2
70800;SDS011;59616;52.170;5.386;2022-12-18T00:03:35;44.72;;;12.60;;
70800;SDS011;59616;52.170;5.386;2022-12-18T00:06:03;43.17;;;11.80;;
70800;SDS011;59616;52.170;5.386;2022-12-18T00:08:30;39.92;;;12.48;;
70800;SDS011;59616;52.170;5.386;2022-12-18T00:13:34;35.10;;;11.63;;
70800;SDS011;59616;52.170;5.386;2022-12-18T00:16:03;41.50;;;11.57;;
70800;SDS011;59616;52.170;5.386;2022-12-18T00:18:31;41.63;;;11.70;;
70800;SDS011;59616;52.170;5.386;2022-12-18T00:20:59;39.17;;;12.30;;
70800;SDS011;59616;52.170;5.386;2022-12-18T00:23:27;41.92;;;11.82;;
70800;SDS011;59616;52.170;5.386;2022-12-18T00:25:54;43.85;;;11.98;;
70800;SDS011;59616;52.170;5.386;2022-12-18T00:28:21;44.08;;;11.10;;
70800;SDS011;59616;52.170;5.386;2022-12-18T00:30:48;42.20;;;11.95;;
70800;SDS011;59616;52.170;5.386;2022-12-18T00:33:17;36.55;;;11.20;;
70800;SDS011;59616;52.170;5.386;2022-12-18T00:40:38;32.97;;;11.23;;
70800;SDS011;59616;52.170;5.386;2022-12-18T00:43:05;38.38;;;12.00;;
70800;SDS011;59616;52.170;5.386;2022-12-18T00:45:35;41.63;;;11.75;;
70800;SDS011;59616;52.170;5.386;2022-12-18T00:50:30;29.83;;;9.80;;
70800;SDS011;59616;52.170;5.386;2022-12-18T00:52:59;41.35;;;12.35;;
70800;SDS011;59616;52.170;5.386;2022-12-18T00:55:26;40.38;;;12.63;;
70800;SDS011;59616;52.170;5.386;2022-12-18T00:57:53;38.30;;;11.82;;
70800;SDS011;59616;52.170;5.386;2022-12-18T01:00:20;40.95;;;11.70;;
70800;SDS011;59616;52.170;5.386;2022-12-18T01:02:48;42.67;;;12.93;;
70800;SDS011;59616;52.170;5.386;2022-12-18T01:05:16;32.33;;;11.60;;
70800;SDS011;59616;52.170;5.386;2022-12-18T01:07:43;37.10;;;12.32;;
70800;SDS011;59616;52.170;5.386;2022-12-18T01:10:11;38.08;;;11.00;;
70800;SDS011;59616;52.170;5.386;2022-12-18T01:12:39;39.28;;;11.07;;
70800;SDS011;59616;52.170;5.386;2022-12-18T01:15:07;49.03;;;12.13;;
70800;SDS011;59616;52.170;5.386;2022-12-18T01:17:35;43.83;;;12.45;;
70800;SDS011;59616;52.170;5.386;2022-12-18T01:20:03;42.22;;;12.48;;
70800;SDS011;59616;52.170;5.386;2022-12-18T01:22:35;44.20;;;12.73;;
70800;SDS011;59616;52.170;5.386;2022-12-18T01:25:02;48.83;;;12.73;;
70800;SDS011;59616;52.170;5.386;2022-12-18T01:27:30;43.72;;;12.90;;
70800;SDS011;59616;52.170;5.386;2022-12-18T01:29:58;40.60;;;12.35;;
70800;SDS011;59616;52.170;5.386;2022-12-18T01:32:25;41.60;;;12.98;;
70800;SDS011;59616;52.170;5.386;2022-12-18T01:34:52;43.05;;;13.82;;
70800;SDS011;59616;52.170;5.386;2022-12-18T01:37:19;38.97;;;12.45;;
70800;SDS011;59616;52.170;5.386;2022-12-18T01:39:47;39.42;;;11.85;;
70800;SDS011;59616;52.170;5.386;2022-12-18T01:42:16;45.17;;;12.07;;
70800;SDS011;59616;52.170;5.386;2022-12-18T01:49:53;44.05;;;11.98;;
70800;SDS011;59616;52.170;5.386;2022-12-18T01:52:21;39.63;;;13.02;;
70800;SDS011;59616;52.170;5.386;2022-12-18T01:54:49;31.83;;;9.70;;
70800;SDS011;59616;52.170;5.386;2022-12-18T01:57:18;46.88;;;12.25;;
70800;SDS011;59616;52.170;5.386;2022-12-18T01:59:46;42.70;;;11.88;;
70800;SDS011;59616;52.170;5.386;2022-12-18T02:02:14;46.33;;;13.20;;
70800;SDS011;59616;52.170;5.386;2022-12-18T02:04:42;43.13;;;13.18;;
70800;SDS011;59616;52.170;5.386;2022-12-18T02:14:58;31.10;;;9.90;;
70800;SDS011;59616;52.170;5.386;2022-12-18T02:17:37;34.88;;;10.75;;
70800;SDS011;59616;52.170;5.386;2022-12-18T02:22:57;45.45;;;12.02;;
70800;SDS011;59616;52.170;5.386;2022-12-18T02:28:01;40.42;;;12.20;;
70800;SDS011;59616;52.170;5.386;2022-12-18T02:30:31;47.60;;;12.68;;
70800;SDS011;59616;52.170;5.386;2022-12-18T02:32:59;39.20;;;12.80;;
70800;SDS011;59616;52.170;5.386;2022-12-18T02:35:29;43.92;;;12.77;;
70800;SDS011;59616;52.170;5.386;2022-12-18T02:37:58;47.08;;;12.05;;
70800;SDS011;59616;52.170;5.386;2022-12-18T02:40:29;39.35;;;12.02;;
70800;SDS011;59616;52.170;5.386;2022-12-18T02:43:11;40.97;;;11.52;;
70800;SDS011;59616;52.170;5.386;2022-12-18T02:45:56;42.72;;;11.75;;
70800;SDS011;59616;52.170;5.386;2022-12-18T02:48:29;33.67;;;11.48;;
70800;SDS011;59616;52.170;5.386;2022-12-18T02:51:08;35.63;;;10.82;;
70800;SDS011;59616;52.170;5.386;2022-12-18T02:53:45;40.65;;;12.88;;
70800;SDS011;59616;52.170;5.386;2022-12-18T02:56:50;43.60;;;12.60;;
70800;SDS011;59616;52.170;5.386;2022-12-18T02:59:13;43.90;;;12.73;;
70800;SDS011;59616;52.170;5.386;2022-12-18T03:04:27;34.33;;;10.57;;
70800;SDS011;59616;52.170;5.386;2022-12-18T03:06:57;39.40;;;11.77;;
70800;SDS011;59616;52.170;5.386;2022-12-18T03:09:31;39.92;;;11.70;;
70800;SDS011;59616;52.170;5.386;2022-12-18T03:12:02;40.20;;;11.68;;
70800;SDS011;59616;52.170;5.386;2022-12-18T03:17:32;36.80;;;10.60;;
70800;SDS011;59616;52.170;5.386;2022-12-18T03:20:05;37.08;;;12.10;;
70800;SDS011;59616;52.170;5.386;2022-12-18T03:22:34;33.70;;;11.10;;
70800;SDS011;59616;52.170;5.386;2022-12-18T03:25:03;42.20;;;12.65;;
70800;SDS011;59616;52.170;5.386;2022-12-18T03:27:31;33.70;;;10.02;;
70800;SDS011;59616;52.170;5.386;2022-12-18T03:30:07;38.90;;;11.18;;
70800;SDS011;59616;52.170;5.386;2022-12-18T03:32:42;38.40;;;12.57;;
70800;SDS011;59616;52.170;5.386;2022-12-18T03:35:12;34.15;;;11.35;;
70800;SDS011;59616;52.170;5.386;2022-12-18T03:37:43;32.92;;;10.40;;
70800;SDS011;59616;52.170;5.386;2022-12-18T03:40:11;42.03;;;12.02;;
70800;SDS011;59616;52.170;5.386;2022-12-18T03:42:51;35.22;;;11.00;;
70800;SDS011;59616;52.170;5.386;2022-12-18T03:45:26;35.05;;;10.93;;
70800;SDS011;59616;52.170;5.386;2022-12-18T03:47:58;33.72;;;10.00;;
70800;SDS011;59616;52.170;5.386;2022-12-18T03:50:34;34.67;;;11.43;;
70800;SDS011;59616;52.170;5.386;2022-12-18T03:55:34;35.97;;;11.80;;
70800;SDS011;59616;52.170;5.386;2022-12-18T03:58:04;33.75;;;10.57;;
70800;SDS011;59616;52.170;5.386;2022-12-18T04:00:49;32.67;;;11.23;;
70800;SDS011;59616;52.170;5.386;2022-12-18T04:03:19;36.03;;;11.07;;
70800;SDS011;59616;52.170;5.386;2022-12-18T04:05:52;33.95;;;11.10;;
70800;SDS011;59616;52.170;5.386;2022-12-18T04:08:21;30.48;;;10.05;;
70800;SDS011;59616;52.170;5.386;2022-12-18T04:10:59;32.58;;;10.73;;
70800;SDS011;59616;52.170;5.386;2022-12-18T04:13:32;32.30;;;10.63;;
70800;SDS011;59616;52.170;5.386;2022-12-18T04:16:01;29.13;;;10.48;;
70800;SDS011;59616;52.170;5.386;2022-12-18T04:18:29;32.05;;;10.68;;
70800;SDS011;59616;52.170;5.386;2022-12-18T04:20:58;27.17;;;9.98;;
70800;SDS011;59616;52.170;5.386;2022-12-18T04:23:26;31.75;;;10.07;;
70800;SDS011;59616;52.170;5.386;2022-12-18T04:25:56;27.40;;;8.38;;
70800;SDS011;59616;52.170;5.386;2022-12-18T04:28:41;36.08;;;11.40;;
70800;SDS011;59616;52.170;5.386;2022-12-18T04:31:08;29.15;;;9.60;;
70800;SDS011;59616;52.170;5.386;2022-12-18T04:33:36;25.17;;;9.13;;
70800;SDS011;59616;52.170;5.386;2022-12-18T04:36:05;22.80;;;7.93;;
70800;SDS011;59616;52.170;5.386;2022-12-18T04:38:33;23.17;;;7.85;;
70800;SDS011;59616;52.170;5.386;2022-12-18T04:41:06;29.40;;;8.85;;
70800;SDS011;59616;52.170;5.386;2022-12-18T04:43:34;23.08;;;7.68;;
70800;SDS011;59616;52.170;5.386;2022-12-18T04:46:05;28.02;;;8.35;;
70800;SDS011;59616;52.170;5.386;2022-12-18T04:48:33;26.77;;;9.05;;
70800;SDS011;59616;52.170;5.386;2022-12-18T04:51:01;24.17;;;8.15;;
70800;SDS011;59616;52.170;5.386;2022-12-18T04:56:02;23.75;;;8.05;;
70800;SDS011;59616;52.170;5.386;2022-12-18T04:58:29;25.13;;;7.43;;
70800;SDS011;59616;52.170;5.386;2022-12-18T05:00:56;30.10;;;8.45;;
70800;SDS011;59616;52.170;5.386;2022-12-18T05:03:24;18.27;;;6.55;;
70800;SDS011;59616;52.170;5.386;2022-12-18T05:05:51;20.70;;;7.82;;
70800;SDS011;59616;52.170;5.386;2022-12-18T05:08:19;26.23;;;8.35;;
70800;SDS011;59616;52.170;5.386;2022-12-18T05:10:46;24.27;;;8.23;;
70800;SDS011;59616;52.170;5.386;2022-12-18T05:13:13;26.45;;;8.70;;
70800;SDS011;59616;52.170;5.386;2022-12-18T05:15:40;23.98;;;7.88;;
70800;SDS011;59616;52.170;5.386;2022-12-18T05:18:08;25.27;;;8.18;;
70800;SDS011;59616;52.170;5.386;2022-12-18T05:23:02;17.40;;;5.43;;
70800;SDS011;59616;52.170;5.386;2022-12-18T05:25:29;21.98;;;7.82;;
70800;SDS011;59616;52.170;5.386;2022-12-18T05:27:56;22.42;;;7.72;;
70800;SDS011;59616;52.170;5.386;2022-12-18T05:30:24;24.77;;;8.15;;
70800;SDS011;59616;52.170;5.386;2022-12-18T05:32:51;23.20;;;7.72;;
70800;SDS011;59616;52.170;5.386;2022-12-18T05:35:18;21.67;;;7.47;;
70800;SDS011;59616;52.170;5.386;2022-12-18T05:37:45;22.75;;;7.82;;
70800;SDS011;59616;52.170;5.386;2022-12-18T05:40:13;20.88;;;7.82;;
70800;SDS011;59616;52.170;5.386;2022-12-18T05:42:40;20.23;;;6.45;;
70800;SDS011;59616;52.170;5.386;2022-12-18T05:45:07;20.63;;;7.18;;
70800;SDS011;59616;52.170;5.386;2022-12-18T05:47:34;19.25;;;6.55;;
70800;SDS011;59616;52.170;5.386;2022-12-18T05:50:01;21.70;;;7.38;;
70800;SDS011;59616;52.170;5.386;2022-12-18T05:52:28;21.00;;;7.22;;
70800;SDS011;59616;52.170;5.386;2022-12-18T05:54:57;18.65;;;6.78;;
70800;SDS011;59616;52.170;5.386;2022-12-18T05:57:25;22.70;;;7.53;;
70800;SDS011;59616;52.170;5.386;2022-12-18T05:59:52;18.73;;;6.13;;
70800;SDS011;59616;52.170;5.386;2022-12-18T06:02:19;19.70;;;7.20;;
70800;SDS011;59616;52.170;5.386;2022-12-18T06:04:47;18.50;;;6.25;;
70800;SDS011;59616;52.170;5.386;2022-12-18T06:07:14;18.52;;;6.57;;
70800;SDS011;59616;52.170;5.386;2022-12-18T06:09:41;19.98;;;6.32;;
70800;SDS011;59616;52.170;5.386;2022-12-18T06:12:08;18.42;;;6.05;;
70800;SDS011;59616;52.170;5.386;2022-12-18T06:14:36;22.38;;;7.20;;
70800;SDS011;59616;52.170;5.386;2022-12-18T06:17:04;17.48;;;6.28;;
70800;SDS011;59616;52.170;5.386;2022-12-18T06:19:31;19.42;;;6.90;;
70800;SDS011;59616;52.170;5.386;2022-12-18T06:21:58;15.95;;;6.22;;
70800;SDS011;59616;52.170;5.386;2022-12-18T06:24:25;18.05;;;5.93;;
70800;SDS011;59616;52.170;5.386;2022-12-18T06:26:52;21.83;;;6.88;;
70800;SDS011;59616;52.170;5.386;2022-12-18T06:29:19;23.15;;;6.57;;
70800;SDS011;59616;52.170;5.386;2022-12-18T06:31:47;17.92;;;6.28;;
70800;SDS011;59616;52.170;5.386;2022-12-18T06:34:14;19.55;;;6.28;;
70800;SDS011;59616;52.170;5.386;2022-12-18T06:36:41;27.10;;;7.40;;
70800;SDS011;59616;52.170;5.386;2022-12-18T06:39:08;20.67;;;7.60;;
70800;SDS011;59616;52.170;5.386;2022-12-18T06:41:35;24.92;;;8.10;;
70800;SDS011;59616;52.170;5.386;2022-12-18T06:44:02;27.45;;;7.15;;
70800;SDS011;59616;52.170;5.386;2022-12-18T06:46:30;19.38;;;6.40;;
70800;SDS011;59616;52.170;5.386;2022-12-18T06:48:58;21.67;;;7.78;;
70800;SDS011;59616;52.170;5.386;2022-12-18T06:51:25;24.48;;;8.20;;
70800;SDS011;59616;52.170;5.386;2022-12-18T06:53:53;24.73;;;7.50;;
70800;SDS011;59616;52.170;5.386;2022-12-18T06:56:20;20.55;;;6.90;;
70800;SDS011;59616;52.170;5.386;2022-12-18T06:58:50;22.75;;;7.07;;
70800;SDS011;59616;52.170;5.386;2022-12-18T07:01:17;22.98;;;7.10;;
70800;SDS011;59616;52.170;5.386;2022-12-18T07:03:45;19.67;;;6.70;;
70800;SDS011;59616;52.170;5.386;2022-12-18T07:06:16;17.58;;;6.47;;
70800;SDS011;59616;52.170;5.386;2022-12-18T07:08:44;22.33;;;7.20;;
70800;SDS011;59616;52.170;5.386;2022-12-18T07:11:11;26.25;;;7.32;;
70800;SDS011;59616;52.170;5.386;2022-12-18T07:13:39;16.60;;;6.57;;
70800;SDS011;59616;52.170;5.386;2022-12-18T07:16:11;21.23;;;6.30;;
70800;SDS011;59616;52.170;5.386;2022-12-18T07:18:49;19.50;;;6.55;;
70800;SDS011;59616;52.170;5.386;2022-12-18T07:21:17;21.00;;;6.82;;
70800;SDS011;59616;52.170;5.386;2022-12-18T07:23:44;19.90;;;6.85;;
70800;SDS011;59616;52.170;5.386;2022-12-18T07:26:15;18.15;;;6.32;;
70800;SDS011;59616;52.170;5.386;2022-12-18T07:28:43;19.30;;;5.95;;
70800;SDS011;59616;52.170;5.386;2022-12-18T07:31:14;17.40;;;6.40;;
70800;SDS011;59616;52.170;5.386;2022-12-18T07:33:41;19.73;;;6.18;;
70800;SDS011;59616;52.170;5.386;2022-12-18T07:36:09;19.05;;;5.47;;
70800;SDS011;59616;52.170;5.386;2022-12-18T07:38:36;20.33;;;7.18;;
70800;SDS011;59616;52.170;5.386;2022-12-18T07:41:04;17.30;;;5.72;;
70800;SDS011;59616;52.170;5.386;2022-12-18T07:43:32;22.30;;;7.05;;
70800;SDS011;59616;52.170;5.386;2022-12-18T07:48:27;17.75;;;5.97;;
70800;SDS011;59616;52.170;5.386;2022-12-18T07:50:58;24.02;;;6.35;;
70800;SDS011;59616;52.170;5.386;2022-12-18T07:53:25;16.70;;;6.00;;
70800;SDS011;59616;52.170;5.386;2022-12-18T07:58:48;17.55;;;6.38;;
70800;SDS011;59616;52.170;5.386;2022-12-18T08:01:15;17.40;;;5.95;;
70800;SDS011;59616;52.170;5.386;2022-12-18T08:06:09;14.18;;;4.70;;
70800;SDS011;59616;52.170;5.386;2022-12-18T08:08:36;16.15;;;5.53;;
70800;SDS011;59616;52.170;5.386;2022-12-18T08:11:04;18.02;;;5.40;;
70800;SDS011;59616;52.170;5.386;2022-12-18T08:13:31;20.20;;;6.13;;
70800;SDS011;59616;52.170;5.386;2022-12-18T08:15:59;17.15;;;6.30;;
70800;SDS011;59616;52.170;5.386;2022-12-18T08:18:27;16.20;;;5.47;;
70800;SDS011;59616;52.170;5.386;2022-12-18T08:20:54;18.83;;;6.63;;
70800;SDS011;59616;52.170;5.386;2022-12-18T08:23:22;22.67;;;6.75;;
70800;SDS011;59616;52.170;5.386;2022-12-18T08:25:53;17.35;;;6.03;;
70800;SDS011;59616;52.170;5.386;2022-12-18T08:28:20;16.95;;;6.50;;
70800;SDS011;59616;52.170;5.386;2022-12-18T08:30:51;17.88;;;6.50;;
70800;SDS011;59616;52.170;5.386;2022-12-18T08:33:18;21.38;;;7.32;;
70800;SDS011;59616;52.170;5.386;2022-12-18T08:35:45;19.45;;;7.32;;
70800;SDS011;59616;52.170;5.386;2022-12-18T08:38:12;22.67;;;7.07;;
70800;SDS011;59616;52.170;5.386;2022-12-18T08:40:40;19.05;;;6.30;;
70800;SDS011;59616;52.170;5.386;2022-12-18T08:43:08;18.70;;;6.63;;
70800;SDS011;59616;52.170;5.386;2022-12-18T08:45:55;22.85;;;7.88;;
70800;SDS011;59616;52.170;5.386;2022-12-18T08:48:22;22.13;;;7.93;;
70800;SDS011;59616;52.170;5.386;2022-12-18T08:50:56;22.45;;;7.05;;
70800;SDS011;59616;52.170;5.386;2022-12-18T08:53:24;20.33;;;6.65;;
70800;SDS011;59616;52.170;5.386;2022-12-18T08:55:56;20.85;;;7.30;;
70800;SDS011;59616;52.170;5.386;2022-12-18T08:58:23;19.50;;;7.43;;
70800;SDS011;59616;52.170;5.386;2022-12-18T09:00:50;20.65;;;7.13;;
70800;SDS011;59616;52.170;5.386;2022-12-18T09:03:18;21.67;;;7.63;;
70800;SDS011;59616;52.170;5.386;2022-12-18T09:05:45;19.70;;;6.95;;
70800;SDS011;59616;52.170;5.386;2022-12-18T09:08:13;16.75;;;6.60;;
70800;SDS011;59616;52.170;5.386;2022-12-18T09:10:43;19.27;;;7.18;;
70800;SDS011;59616;52.170;5.386;2022-12-18T09:13:11;21.15;;;7.10;;
70800;SDS011;59616;52.170;5.386;2022-12-18T09:15:41;19.20;;;7.18;;
70800;SDS011;59616;52.170;5.386;2022-12-18T09:18:09;24.10;;;7.40;;
70800;SDS011;59616;52.170;5.386;2022-12-18T09:20:36;18.35;;;7.22;;
70800;SDS011;59616;52.170;5.386;2022-12-18T09:23:04;26.95;;;8.75;;
70800;SDS011;59616;52.170;5.386;2022-12-18T09:25:32;19.90;;;7.55;;
70800;SDS011;59616;52.170;5.386;2022-12-18T09:28:02;20.83;;;8.00;;
70800;SDS011;59616;52.170;5.386;2022-12-18T09:30:29;22.13;;;7.88;;
70800;SDS011;59616;52.170;5.386;2022-12-18T09:33:00;21.90;;;8.25;;
70800;SDS011;59616;52.170;5.386;2022-12-18T09:35:27;21.13;;;7.28;;
70800;SDS011;59616;52.170;5.386;2022-12-18T09:37:55;18.40;;;6.85;;
70800;SDS011;59616;52.170;5.386;2022-12-18T09:40:23;20.15;;;7.97;;
70800;SDS011;59616;52.170;5.386;2022-12-18T09:42:54;21.02;;;7.57;;
70800;SDS011;59616;52.170;5.386;2022-12-18T09:45:22;22.77;;;7.72;;
70800;SDS011;59616;52.170;5.386;2022-12-18T09:47:50;23.55;;;7.80;;
70800;SDS011;59616;52.170;5.386;2022-12-18T09:50:24;19.85;;;7.35;;
70800;SDS011;59616;52.170;5.386;2022-12-18T09:52:54;17.35;;;7.38;;
70800;SDS011;59616;52.170;5.386;2022-12-18T09:58:06;17.85;;;6.85;;
70800;SDS011;59616;52.170;5.386;2022-12-18T10:00:34;20.30;;;7.55;;
70800;SDS011;59616;52.170;5.386;2022-12-18T10:03:12;17.33;;;7.05;;
70800;SDS011;59616;52.170;5.386;2022-12-18T10:08:22;20.42;;;7.07;;
70800;SDS011;59616;52.170;5.386;2022-12-18T10:10:55;20.83;;;8.20;;
70800;SDS011;59616;52.170;5.386;2022-12-18T10:13:36;26.75;;;7.25;;
70800;SDS011;59616;52.170;5.386;2022-12-18T10:19:18;17.00;;;6.05;;
70800;SDS011;59616;52.170;5.386;2022-12-18T10:21:21;19.90;;;6.68;;
70800;SDS011;59616;52.170;5.386;2022-12-18T10:26:35;19.98;;;7.60;;
70800;SDS011;59616;52.170;5.386;2022-12-18T10:29:06;19.92;;;7.10;;
70800;SDS011;59616;52.170;5.386;2022-12-18T10:31:35;17.98;;;7.35;;
70800;SDS011;59616;52.170;5.386;2022-12-18T10:36:29;16.10;;;5.10;;
70800;SDS011;59616;52.170;5.386;2022-12-18T10:39:16;15.68;;;5.55;;
70800;SDS011;59616;52.170;5.386;2022-12-18T10:41:43;23.75;;;6.78;;
70800;SDS011;59616;52.170;5.386;2022-12-18T10:44:12;17.23;;;6.38;;
70800;SDS011;59616;52.170;5.386;2022-12-18T10:46:41;16.85;;;6.88;;
70800;SDS011;59616;52.170;5.386;2022-12-18T10:49:18;17.23;;;5.40;;
70800;SDS011;59616;52.170;5.386;2022-12-18T10:51:45;17.77;;;5.78;;
70800;SDS011;59616;52.170;5.386;2022-12-18T10:56:40;17.00;;;5.50;;
70800;SDS011;59616;52.170;5.386;2022-12-18T10:59:10;16.85;;;6.15;;
70800;SDS011;59616;52.170;5.386;2022-12-18T11:04:22;17.73;;;6.63;;
70800;SDS011;59616;52.170;5.386;2022-12-18T11:09:21;16.58;;;5.55;;
70800;SDS011;59616;52.170;5.386;2022-12-18T11:11:49;17.25;;;5.28;;
70800;SDS011;59616;52.170;5.386;2022-12-18T11:14:21;14.55;;;5.07;;
70800;SDS011;59616;52.170;5.386;2022-12-18T11:16:49;13.93;;;4.80;;
70800;SDS011;59616;52.170;5.386;2022-12-18T11:19:37;15.30;;;5.82;;
70800;SDS011;59616;52.170;5.386;2022-12-18T11:22:18;17.05;;;6.47;;
70800;SDS011;59616;52.170;5.386;2022-12-18T11:24:53;19.83;;;6.45;;
70800;SDS011;59616;52.170;5.386;2022-12-18T11:27:46;17.70;;;6.03;;
70800;SDS011;59616;52.170;5.386;2022-12-18T11:30:22;18.85;;;6.57;;
70800;SDS011;59616;52.170;5.386;2022-12-18T11:32:56;15.02;;;5.07;;
70800;SDS011;59616;52.170;5.386;2022-12-18T11:38:02;18.90;;;6.90;;
70800;SDS011;59616;52.170;5.386;2022-12-18T11:40:35;15.52;;;6.25;;
70800;SDS011;59616;52.170;5.386;2022-12-18T11:43:09;18.08;;;6.40;;
70800;SDS011;59616;52.170;5.386;2022-12-18T11:45:43;17.00;;;6.70;;
70800;SDS011;59616;52.170;5.386;2022-12-18T11:50:53;18.95;;;6.18;;
70800;SDS011;59616;52.170;5.386;2022-12-18T11:53:21;16.60;;;6.05;;
70800;SDS011;59616;52.170;5.386;2022-12-18T11:55:57;17.27;;;5.60;;
70800;SDS011;59616;52.170;5.386;2022-12-18T12:08:34;16.10;;;5.78;;
70800;SDS011;59616;52.170;5.386;2022-12-18T12:18:48;14.88;;;5.40;;
70800;SDS011;59616;52.170;5.386;2022-12-18T12:29:04;15.85;;;5.82;;
70800;SDS011;59616;52.170;5.386;2022-12-18T12:34:20;18.08;;;5.97;;
70800;SDS011;59616;52.170;5.386;2022-12-18T12:39:36;14.73;;;5.45;;
70800;SDS011;59616;52.170;5.386;2022-12-18T12:42:05;17.42;;;5.95;;
70800;SDS011;59616;52.170;5.386;2022-12-18T12:44:55;17.58;;;6.00;;
70800;SDS011;59616;52.170;5.386;2022-12-18T12:47:31;18.35;;;5.90;;
70800;SDS011;59616;52.170;5.386;2022-12-18T12:50:00;19.98;;;6.60;;
70800;SDS011;59616;52.170;5.386;2022-12-18T12:52:35;17.30;;;6.22;;
70800;SDS011;59616;52.170;5.386;2022-12-18T12:55:05;16.65;;;5.40;;
70800;SDS011;59616;52.170;5.386;2022-12-18T12:57:40;17.45;;;5.95;;
70800;SDS011;59616;52.170;5.386;2022-12-18T13:00:10;19.65;;;6.32;;
70800;SDS011;59616;52.170;5.386;2022-12-18T13:05:30;20.45;;;5.45;;
70800;SDS011;59616;52.170;5.386;2022-12-18T13:08:01;18.88;;;6.20;;
70800;SDS011;59616;52.170;5.386;2022-12-18T13:10:39;21.27;;;6.63;;
70800;SDS011;59616;52.170;5.386;2022-12-18T13:13:08;20.98;;;6.72;;
70800;SDS011;59616;52.170;5.386;2022-12-18T13:15:39;17.20;;;5.28;;
70800;SDS011;59616;52.170;5.386;2022-12-18T13:20:40;18.40;;;6.68;;
70800;SDS011;59616;52.170;5.386;2022-12-18T13:23:19;20.15;;;6.88;;
70800;SDS011;59616;52.170;5.386;2022-12-18T13:25:47;19.63;;;6.72;;
70800;SDS011;59616;52.170;5.386;2022-12-18T13:28:15;20.40;;;7.38;;
70800;SDS011;59616;52.170;5.386;2022-12-18T13:30:44;19.58;;;6.40;;
70800;SDS011;59616;52.170;5.386;2022-12-18T13:38:23;16.92;;;6.03;;
70800;SDS011;59616;52.170;5.386;2022-12-18T13:45:45;17.60;;;6.55;;
70800;SDS011;59616;52.170;5.386;2022-12-18T13:48:21;20.63;;;7.53;;
70800;SDS011;59616;52.170;5.386;2022-12-18T13:50:55;18.83;;;6.70;;
70800;SDS011;59616;52.170;5.386;2022-12-18T13:53:31;19.25;;;6.43;;
70800;SDS011;59616;52.170;5.386;2022-12-18T13:55:59;17.38;;;7.05;;
70800;SDS011;59616;52.170;5.386;2022-12-18T13:58:27;20.80;;;7.05;;
70800;SDS011;59616;52.170;5.386;2022-12-18T14:00:54;20.52;;;5.88;;
70800;SDS011;59616;52.170;5.386;2022-12-18T14:03:24;22.80;;;8.00;;
70800;SDS011;59616;52.170;5.386;2022-12-18T14:05:56;17.08;;;6.35;;
70800;SDS011;59616;52.170;5.386;2022-12-18T14:08:26;19.67;;;7.00;;
70800;SDS011;59616;52.170;5.386;2022-12-18T14:10:54;21.45;;;7.38;;
70800;SDS011;59616;52.170;5.386;2022-12-18T14:15:56;18.00;;;6.25;;
70800;SDS011;59616;52.170;5.386;2022-12-18T14:20:59;22.55;;;6.38;;
70800;SDS011;59616;52.170;5.386;2022-12-18T14:23:35;18.30;;;6.68;;
70800;SDS011;59616;52.170;5.386;2022-12-18T14:26:25;18.65;;;6.38;;
70800;SDS011;59616;52.170;5.386;2022-12-18T14:28:53;17.35;;;6.63;;
70800;SDS011;59616;52.170;5.386;2022-12-18T14:31:22;17.65;;;6.32;;
70800;SDS011;59616;52.170;5.386;2022-12-18T14:33:50;18.48;;;6.30;;
70800;SDS011;59616;52.170;5.386;2022-12-18T14:36:19;21.40;;;7.05;;
70800;SDS011;59616;52.170;5.386;2022-12-18T14:38:50;18.35;;;6.28;;
70800;SDS011;59616;52.170;5.386;2022-12-18T14:41:20;25.75;;;7.43;;
70800;SDS011;59616;52.170;5.386;2022-12-18T14:43:48;24.90;;;7.90;;
70800;SDS011;59616;52.170;5.386;2022-12-18T14:48:52;18.38;;;6.50;;
70800;SDS011;59616;52.170;5.386;2022-12-18T14:51:20;22.23;;;7.68;;
70800;SDS011;59616;52.170;5.386;2022-12-18T14:53:51;17.33;;;5.80;;
70800;SDS011;59616;52.170;5.386;2022-12-18T14:56:22;22.70;;;7.15;;
70800;SDS011;59616;52.170;5.386;2022-12-18T14:58:50;16.50;;;6.50;;
70800;SDS011;59616;52.170;5.386;2022-12-18T15:01:19;25.92;;;6.90;;
70800;SDS011;59616;52.170;5.386;2022-12-18T15:03:47;23.80;;;8.00;;
70800;SDS011;59616;52.170;5.386;2022-12-18T15:06:15;20.75;;;7.35;;
70800;SDS011;59616;52.170;5.386;2022-12-18T15:08:43;19.40;;;6.40;;
70800;SDS011;59616;52.170;5.386;2022-12-18T15:14:00;20.65;;;6.72;;
70800;SDS011;59616;52.170;5.386;2022-12-18T15:16:27;18.58;;;7.50;;
70800;SDS011;59616;52.170;5.386;2022-12-18T15:18:54;21.67;;;6.72;;
70800;SDS011;59616;52.170;5.386;2022-12-18T15:21:21;20.70;;;7.45;;
70800;SDS011;59616;52.170;5.386;2022-12-18T15:26:18;16.15;;;6.07;;
70800;SDS011;59616;52.170;5.386;2022-12-18T15:28:49;19.00;;;7.07;;
70800;SDS011;59616;52.170;5.386;2022-12-18T15:36:13;19.95;;;6.47;;
70800;SDS011;59616;52.170;5.386;2022-12-18T15:38:41;17.55;;;6.68;;
70800;SDS011;59616;52.170;5.386;2022-12-18T15:41:16;20.80;;;6.93;;
70800;SDS011;59616;52.170;5.386;2022-12-18T15:43:50;18.15;;;6.72;;
70800;SDS011;59616;52.170;5.386;2022-12-18T15:46:24;19.65;;;7.80;;
70800;SDS011;59616;52.170;5.386;2022-12-18T15:48:53;21.30;;;7.10;;
70800;SDS011;59616;52.170;5.386;2022-12-18T15:51:34;24.08;;;8.68;;
70800;SDS011;59616;52.170;5.386;2022-12-18T15:54:02;19.48;;;7.45;;
70800;SDS011;59616;52.170;5.386;2022-12-18T15:56:30;20.58;;;7.85;;
70800;SDS011;59616;52.170;5.386;2022-12-18T16:01:46;23.35;;;7.60;;
70800;SDS011;59616;52.170;5.386;2022-12-18T16:04:14;23.48;;;7.90;;
70800;SDS011;59616;52.170;5.386;2022-12-18T16:06:42;20.13;;;7.72;;
70800;SDS011;59616;52.170;5.386;2022-12-18T16:09:29;17.48;;;6.85;;
70800;SDS011;59616;52.170;5.386;2022-12-18T16:11:59;21.85;;;8.40;;
70800;SDS011;59616;52.170;5.386;2022-12-18T16:14:29;21.15;;;7.07;;
70800;SDS011;59616;52.170;5.386;2022-12-18T16:17:01;21.40;;;7.95;;
70800;SDS011;59616;52.170;5.386;2022-12-18T16:19:29;20.08;;;7.78;;
70800;SDS011;59616;52.170;5.386;2022-12-18T16:21:56;18.40;;;6.82;;
70800;SDS011;59616;52.170;5.386;2022-12-18T16:24:28;22.98;;;8.32;;
70800;SDS011;59616;52.170;5.386;2022-12-18T16:26:56;20.20;;;6.97;;
70800;SDS011;59616;52.170;5.386;2022-12-18T16:29:25;20.90;;;6.20;;
70800;SDS011;59616;52.170;5.386;2022-12-18T16:31:56;21.80;;;6.90;;
70800;SDS011;59616;52.170;5.386;2022-12-18T16:36:59;27.25;;;8.50;;
70800;SDS011;59616;52.170;5.386;2022-12-18T16:39:31;23.77;;;8.43;;
70800;SDS011;59616;52.170;5.386;2022-12-18T16:42:00;19.15;;;7.35;;
70800;SDS011;59616;52.170;5.386;2022-12-18T16:44:31;21.67;;;7.53;;
70800;SDS011;59616;52.170;5.386;2022-12-18T16:46:58;22.20;;;8.07;;
70800;SDS011;59616;52.170;5.386;2022-12-18T16:49:28;22.58;;;7.28;;
70800;SDS011;59616;52.170;5.386;2022-12-18T16:54:21;22.23;;;7.45;;
70800;SDS011;59616;52.170;5.386;2022-12-18T16:56:49;22.20;;;8.18;;
70800;SDS011;59616;52.170;5.386;2022-12-18T16:59:17;27.85;;;6.70;;
70800;SDS011;59616;52.170;5.386;2022-12-18T17:01:45;22.15;;;7.15;;
70800;SDS011;59616;52.170;5.386;2022-12-18T17:04:13;19.27;;;7.60;;
70800;SDS011;59616;52.170;5.386;2022-12-18T17:06:41;22.42;;;8.68;;
70800;SDS011;59616;52.170;5.386;2022-12-18T17:09:12;24.80;;;7.88;;
70800;SDS011;59616;52.170;5.386;2022-12-18T17:11:41;24.70;;;8.75;;
70800;SDS011;59616;52.170;5.386;2022-12-18T17:14:09;23.77;;;8.75;;
70800;SDS011;59616;52.170;5.386;2022-12-18T17:16:37;24.48;;;8.18;;